Time;durP1;ratioP1;P1;durP2;ratioP2;P2;SDS_P1;SDS_P2;PMS_P1;PMS_P2;Temp;Humidity;BMP_temperature;BMP_pressure;BME280_temperature;BME280_humidity;BME280_pressure;Samples;Min_cycle;Max_cycle;Signal;HPM_P1;HPM_P2
2022/12/16 00:00:11;;;;;;;41.55;19.60;;;;;;;;;;4978585;28;20474;-79
2022/12/16 00:02:38;;;;;;;41.92;20.35;;;;;;;;;;4979025;28;20031;-78
2022/12/16 00:05:04;;;;;;;44.28;18.85;;;;;;;;;;4983244;28;20114;-80
2022/12/16 00:07:30;;;;;;;47.38;21.80;;;;;;;;;;5031850;28;20078;-77
2022/12/16 00:09:57;;;;;;;42.25;19.33;;;;;;;;;;5017409;28;20022;-79
2022/12/16 00:12:23;;;;;;;39.17;20.00;;;;;;;;;;5033004;28;20133;-78
2022/12/16 00:14:49;;;;;;;40.20;19.92;;;;;;;;;;5032696;28;20042;-79
2022/12/16 00:17:15;;;;;;;38.60;19.23;;;;;;;;;;5016364;28;20046;-78
2022/12/16 00:19:41;;;;;;;42.72;20.83;;;;;;;;;;5016972;28;20030;-78
2022/12/16 00:22:07;;;;;;;39.47;19.25;;;;;;;;;;5015897;28;20038;-80
2022/12/16 00:24:33;;;;;;;39.78;19.08;;;;;;;;;;5006660;28;20038;-79
2022/12/16 00:26:59;;;;;;;33.65;16.80;;;;;;;;;;5016799;28;20030;-79
2022/12/16 00:29:34;;;;;;;41.88;19.70;;;;;;;;;;5020727;28;20539;-79
2022/12/16 00:32:09;;;;;;;37.97;18.40;;;;;;;;;;5021524;28;20034;-80
2022/12/16 00:34:46;;;;;;;36.53;17.52;;;;;;;;;;4991771;28;20134;-79
2022/12/16 00:37:15;;;;;;;36.75;17.80;;;;;;;;;;4984029;28;20027;-78
2022/12/16 00:39:43;;;;;;;35.53;16.33;;;;;;;;;;4989826;28;20039;-78
2022/12/16 00:42:10;;;;;;;36.13;17.08;;;;;;;;;;5006523;28;20114;-78
2022/12/16 00:44:38;;;;;;;36.40;17.35;;;;;;;;;;4990414;28;20047;-79
2022/12/16 00:47:05;;;;;;;32.30;15.85;;;;;;;;;;4990798;28;20026;-79
2022/12/16 00:49:33;;;;;;;37.13;17.17;;;;;;;;;;5015681;28;20042;-79
2022/12/16 00:51:59;;;;;;;36.78;17.83;;;;;;;;;;5028679;28;20042;-78
2022/12/16 00:54:27;;;;;;;32.55;16.17;;;;;;;;;;5011238;28;20034;-77
2022/12/16 00:56:59;;;;;;;31.77;15.65;;;;;;;;;;4991612;28;20066;-78
2022/12/16 00:59:25;;;;;;;29.92;15.90;;;;;;;;;;4992138;28;20041;-78
2022/12/16 01:01:51;;;;;;;31.92;16.20;;;;;;;;;;4986767;28;20046;-79
2022/12/16 01:04:42;;;;;;;29.55;14.77;;;;;;;;;;4996427;28;20485;-79
2022/12/16 01:07:13;;;;;;;34.45;15.77;;;;;;;;;;4999589;28;20054;-79
2022/12/16 01:09:42;;;;;;;31.23;15.70;;;;;;;;;;4999270;28;20092;-79
2022/12/16 01:12:11;;;;;;;30.35;14.85;;;;;;;;;;4999713;28;20053;-80
2022/12/16 01:14:38;;;;;;;31.23;14.88;;;;;;;;;;5000720;28;20026;-78
2022/12/16 01:17:17;;;;;;;30.00;15.57;;;;;;;;;;5008157;28;20133;-78
2022/12/16 01:20:05;;;;;;;32.28;15.32;;;;;;;;;;4974750;28;20031;-78
2022/12/16 01:22:58;;;;;;;34.78;16.15;;;;;;;;;;4976384;28;20406;-78
2022/12/16 01:25:49;;;;;;;33.70;16.10;;;;;;;;;;4997428;28;20416;-78
2022/12/16 01:28:56;;;;;;;33.88;15.90;;;;;;;;;;4994814;28;20042;-81
2022/12/16 01:31:23;;;;;;;35.53;14.98;;;;;;;;;;4978685;28;20042;-79
2022/12/16 01:33:52;;;;;;;34.30;15.73;;;;;;;;;;4995369;28;20038;-79
2022/12/16 01:36:21;;;;;;;36.50;17.40;;;;;;;;;;4981165;28;20477;-79
2022/12/16 01:38:47;;;;;;;36.85;17.38;;;;;;;;;;5005168;28;20076;-79
2022/12/16 01:41:14;;;;;;;32.75;16.10;;;;;;;;;;4993599;28;20023;-80
2022/12/16 01:43:41;;;;;;;32.20;15.38;;;;;;;;;;4993628;28;20035;-79
2022/12/16 01:46:13;;;;;;;35.40;15.52;;;;;;;;;;5005081;28;20061;-79
2022/12/16 01:49:01;;;;;;;33.85;16.80;;;;;;;;;;5010094;28;20056;-79
2022/12/16 01:51:45;;;;;;;34.10;15.95;;;;;;;;;;4997411;28;20031;-80
2022/12/16 01:54:21;;;;;;;34.13;15.93;;;;;;;;;;4997852;28;20022;-79
2022/12/16 01:56:52;;;;;;;34.63;16.08;;;;;;;;;;4997170;28;20035;-78
2022/12/16 01:59:23;;;;;;;32.30;16.77;;;;;;;;;;5014005;28;20450;-79
2022/12/16 02:02:09;;;;;;;33.17;16.45;;;;;;;;;;5002605;28;20489;-80
2022/12/16 02:05:19;;;;;;;33.05;16.00;;;;;;;;;;5014485;28;20022;-79
2022/12/16 02:07:28;;;;;;;32.75;16.15;;;;;;;;;;4996583;28;20093;-78
2022/12/16 02:13:13;;;;;;;37.97;18.85;;;;;;;;;;4997823;28;20468;-79
2022/12/16 02:16:02;;;;;;;31.33;17.63;;;;;;;;;;5012889;28;20401;-78
2022/12/16 02:18:49;;;;;;;32.85;18.05;;;;;;;;;;5002843;28;20485;-79
2022/12/16 02:21:57;;;;;;;31.48;17.05;;;;;;;;;;4980155;28;20042;-79
2022/12/16 02:25:14;;;;;;;30.52;18.08;;;;;;;;;;4984908;28;20404;-79
2022/12/16 02:28:01;;;;;;;28.55;15.85;;;;;;;;;;4982048;28;20058;-79
2022/12/16 02:31:04;;;;;;;30.52;17.75;;;;;;;;;;4980835;28;20061;-78
2022/12/16 02:33:37;;;;;;;32.47;16.98;;;;;;;;;;4982942;28;20019;-79
2022/12/16 02:36:12;;;;;;;32.97;17.52;;;;;;;;;;4995565;28;20051;-79
2022/12/16 02:39:02;;;;;;;37.08;19.45;;;;;;;;;;4981536;28;20039;-79
2022/12/16 02:42:00;;;;;;;31.70;17.58;;;;;;;;;;4982735;28;20047;-79
2022/12/16 02:44:44;;;;;;;34.67;19.77;;;;;;;;;;4983718;28;20046;-79
2022/12/16 02:47:17;;;;;;;38.10;18.83;;;;;;;;;;4999521;28;20038;-80
2022/12/16 02:49:54;;;;;;;35.17;19.02;;;;;;;;;;4989460;28;20054;-80
2022/12/16 02:52:33;;;;;;;36.28;19.35;;;;;;;;;;4982337;28;20050;-79
2022/12/16 02:55:05;;;;;;;34.78;19.13;;;;;;;;;;4997393;28;20027;-79
2022/12/16 02:57:34;;;;;;;42.20;22.33;;;;;;;;;;4997288;28;20034;-80
2022/12/16 03:00:13;;;;;;;38.25;21.40;;;;;;;;;;5010041;28;20524;-80
2022/12/16 03:02:58;;;;;;;36.47;20.52;;;;;;;;;;5016735;28;20126;-80
2022/12/16 03:05:53;;;;;;;39.30;21.10;;;;;;;;;;5000994;28;20374;-79
2022/12/16 03:08:45;;;;;;;33.13;19.55;;;;;;;;;;5008168;28;20042;-78
2022/12/16 03:11:15;;;;;;;45.58;24.77;;;;;;;;;;5000939;28;20138;-78
2022/12/16 03:13:44;;;;;;;41.83;25.17;;;;;;;;;;4988063;28;20110;-78
2022/12/16 03:16:16;;;;;;;41.92;24.45;;;;;;;;;;5004347;28;20034;-79
2022/12/16 03:19:00;;;;;;;44.08;25.13;;;;;;;;;;5008035;28;20065;-78
2022/12/16 03:22:08;;;;;;;45.90;24.90;;;;;;;;;;4981129;28;20046;-79
2022/12/16 03:24:38;;;;;;;43.67;25.17;;;;;;;;;;4991859;28;20049;-79
2022/12/16 03:27:10;;;;;;;43.30;24.30;;;;;;;;;;4987289;28;20102;-79
2022/12/16 03:29:40;;;;;;;34.00;20.42;;;;;;;;;;5008707;28;20036;-78
2022/12/16 03:32:16;;;;;;;30.38;18.42;;;;;;;;;;5028263;28;20090;-78
2022/12/16 03:34:54;;;;;;;31.10;17.75;;;;;;;;;;5013175;28;20041;-78
2022/12/16 03:37:22;;;;;;;31.27;18.20;;;;;;;;;;5026094;28;20121;-79
2022/12/16 03:39:50;;;;;;;32.08;18.08;;;;;;;;;;5023976;28;20030;-78
2022/12/16 03:42:17;;;;;;;28.38;17.10;;;;;;;;;;5007167;28;20058;-79
2022/12/16 03:44:47;;;;;;;30.42;18.10;;;;;;;;;;4995267;28;20218;-79
2022/12/16 03:47:31;;;;;;;26.30;15.73;;;;;;;;;;5007760;28;20022;-78
2022/12/16 03:50:00;;;;;;;27.88;16.83;;;;;;;;;;5012016;28;20050;-79
2022/12/16 03:52:33;;;;;;;27.67;16.25;;;;;;;;;;5019403;28;20176;-79
2022/12/16 03:55:03;;;;;;;32.95;17.73;;;;;;;;;;4999572;28;20034;-79
2022/12/16 03:57:51;;;;;;;32.80;17.98;;;;;;;;;;4984533;28;20046;-79
2022/12/16 04:00:32;;;;;;;34.50;19.92;;;;;;;;;;5013502;28;20049;-79
2022/12/16 04:03:29;;;;;;;31.27;19.27;;;;;;;;;;5001049;28;20548;-79
2022/12/16 04:06:17;;;;;;;36.35;19.20;;;;;;;;;;4998900;28;20030;-79
2022/12/16 04:08:47;;;;;;;38.13;20.73;;;;;;;;;;4999704;28;20038;-79
2022/12/16 04:25:31;;;;;;;41.47;22.13;;;;;;;;;;4994018;28;20030;-79
2022/12/16 04:27:58;;;;;;;39.05;21.55;;;;;;;;;;4997966;28;20046;-79
2022/12/16 04:30:26;;;;;;;41.08;22.02;;;;;;;;;;4997704;28;20038;-79
